Time;durP1;ratioP1;P1;durP2;ratioP2;P2;SDS_P1;SDS_P2;PMS_P1;PMS_P2;Temp;Humidity;BMP_temperature;BMP_pressure;BME280_temperature;BME280_humidity;BME280_pressure;Samples;Min_cycle;Max_cycle;Signal;HPM_P1;HPM_P2
2022/11/05 00:09:31;;;;;;;5.20;4.70;;;9.80;99.90;;;;;;5034614;28;20217;-63
2022/11/05 00:17:35;;;;;;;7.13;6.43;;;9.80;99.90;;;;;;5049318;28;20560;-64
2022/11/05 00:20:00;;;;;;;5.80;4.70;;;9.70;99.90;;;;;;5041805;28;20183;-62
2022/11/05 00:25:17;;;;;;;6.67;5.37;;;9.90;99.90;;;;;;5056584;28;20704;-62
2022/11/05 00:27:45;;;;;;;4.70;4.30;;;10.10;99.90;;;;;;5053524;28;20214;-63
2022/11/05 00:30:13;;;;;;;5.47;4.97;;;10.10;99.90;;;;;;5050752;28;20185;-64
2022/11/05 00:32:38;;;;;;;6.13;4.80;;;9.80;99.90;;;;;;5042564;28;20640;-64
2022/11/05 00:35:06;;;;;;;5.93;5.40;;;9.70;99.90;;;;;;5041622;28;20206;-63
2022/11/05 00:37:31;;;;;;;6.43;5.23;;;9.60;99.90;;;;;;5035483;28;20187;-63
2022/11/05 00:39:57;;;;;;;5.50;5.00;;;9.60;99.90;;;;;;5046190;28;20175;-63
2022/11/05 00:45:07;;;;;;;5.73;5.10;;;9.60;99.90;;;;;;5052609;28;20193;-64
2022/11/05 00:50:19;;;;;;;6.50;5.90;;;9.40;99.90;;;;;;5053999;28;20549;-64
2022/11/05 00:52:54;;;;;;;6.10;5.50;;;9.40;99.90;;;;;;5044473;28;20210;-64
2022/11/05 00:55:40;;;;;;;6.33;5.73;;;9.50;99.90;;;;;;5044964;28;20255;-63
2022/11/05 00:58:08;;;;;;;5.63;5.20;;;9.80;99.90;;;;;;5053034;28;20668;-63
2022/11/05 01:00:36;;;;;;;6.53;5.50;;;9.70;99.90;;;;;;5034823;28;20180;-63
2022/11/05 01:03:11;;;;;;;6.07;5.10;;;9.70;99.90;;;;;;5039356;28;20191;-63
2022/11/05 01:05:42;;;;;;;6.30;5.70;;;9.80;99.90;;;;;;5035460;28;20179;-63
2022/11/05 01:08:08;;;;;;;7.80;7.00;;;9.70;99.90;;;;;;5034620;28;20740;-64
2022/11/05 01:10:45;;;;;;;9.23;7.47;;;9.70;99.90;;;;;;5039365;28;20305;-64
2022/11/05 01:13:12;;;;;;;8.07;7.27;;;9.70;99.90;;;;;;5050945;28;20213;-64
2022/11/05 01:15:38;;;;;;;8.17;7.47;;;9.80;99.90;;;;;;5042023;28;20837;-64
2022/11/05 01:18:04;;;;;;;8.47;7.50;;;10.00;99.90;;;;;;5039910;28;20175;-64
2022/11/05 01:20:30;;;;;;;7.07;6.47;;;9.90;99.90;;;;;;5054058;28;20331;-63
2022/11/05 01:22:56;;;;;;;7.53;6.63;;;9.90;99.90;;;;;;5051992;28;20568;-62
2022/11/05 01:25:22;;;;;;;8.93;8.13;;;9.90;99.90;;;;;;5046266;28;20261;-63
2022/11/05 01:27:48;;;;;;;8.50;7.70;;;10.30;99.90;;;;;;5041670;28;20645;-63
2022/11/05 01:30:14;;;;;;;9.43;8.53;;;9.70;99.90;;;;;;5038749;28;20183;-63
2022/11/05 01:32:40;;;;;;;10.47;9.43;;;9.60;99.90;;;;;;5051953;28;20207;-62
2022/11/05 01:35:09;;;;;;;9.60;8.70;;;9.60;99.90;;;;;;5053212;28;20175;-62
2022/11/05 01:37:34;;;;;;;9.37;8.37;;;9.50;99.90;;;;;;5040461;28;20184;-63
2022/11/05 01:40:00;;;;;;;8.53;7.77;;;9.30;99.90;;;;;;5047785;28;20331;-64
2022/11/05 01:42:27;;;;;;;8.10;7.30;;;9.40;99.90;;;;;;5047476;28;20218;-63
2022/11/05 01:44:55;;;;;;;9.70;8.80;;;9.00;99.90;;;;;;5040321;28;20685;-64
2022/11/05 01:47:49;;;;;;;10.03;9.03;;;9.10;99.90;;;;;;5047900;28;20184;-63
2022/11/05 01:50:34;;;;;;;12.33;10.30;;;9.00;99.90;;;;;;5027455;28;20183;-62
2022/11/05 01:53:10;;;;;;;9.07;8.27;;;8.90;99.90;;;;;;5044369;28;20207;-63
2022/11/05 01:55:46;;;;;;;9.47;8.47;;;8.80;99.90;;;;;;5053342;28;20182;-63
2022/11/05 01:58:17;;;;;;;9.33;8.50;;;9.00;99.90;;;;;;5044501;28;20179;-63
2022/11/05 02:00:43;;;;;;;8.87;7.97;;;9.20;99.90;;;;;;5051995;28;20179;-63
2022/11/05 02:03:09;;;;;;;9.53;8.20;;;9.40;99.90;;;;;;5045995;28;20516;-62
2022/11/05 02:05:35;;;;;;;8.40;7.60;;;9.20;99.90;;;;;;5053103;28;20579;-63
2022/11/05 02:08:01;;;;;;;9.43;8.13;;;9.30;99.90;;;;;;5050026;28;20178;-63
2022/11/05 02:10:27;;;;;;;8.80;8.00;;;9.30;99.90;;;;;;5053222;28;20175;-62
2022/11/05 02:12:53;;;;;;;7.57;6.87;;;9.30;99.90;;;;;;5051135;28;20210;-63
2022/11/05 02:15:53;;;;;;;9.77;8.87;;;9.30;99.90;;;;;;5046808;28;20514;-62
2022/11/05 02:18:36;;;;;;;8.87;8.00;;;9.30;99.90;;;;;;5048360;28;20273;-63
2022/11/05 02:21:36;;;;;;;9.03;8.23;;;9.30;99.90;;;;;;5052447;28;20177;-61
2022/11/05 02:24:20;;;;;;;8.80;7.90;;;9.40;99.90;;;;;;5042667;28;20206;-63
2022/11/05 02:27:17;;;;;;;8.43;7.63;;;9.20;99.90;;;;;;5047814;28;20637;-63
2022/11/05 02:30:16;;;;;;;7.77;7.00;;;9.30;99.90;;;;;;5032903;28;20184;-62
2022/11/05 02:33:06;;;;;;;9.00;8.10;;;8.90;99.90;;;;;;5033977;28;20242;-62
2022/11/05 02:35:50;;;;;;;10.20;8.20;;;8.80;99.90;;;;;;5037615;28;20262;-63
2022/11/05 02:38:44;;;;;;;9.00;8.20;;;9.00;99.90;;;;;;5032918;28;20294;-63
2022/11/05 02:41:23;;;;;;;8.87;7.97;;;9.00;99.90;;;;;;5042315;28;20190;-62
2022/11/05 02:43:55;;;;;;;8.70;7.80;;;9.30;99.90;;;;;;5051524;28;20715;-62
2022/11/05 02:46:44;;;;;;;9.03;8.20;;;9.40;99.90;;;;;;5033508;28;20218;-64
2022/11/05 02:49:19;;;;;;;8.07;7.37;;;9.60;99.90;;;;;;5038234;28;20553;-62
2022/11/05 02:52:03;;;;;;;9.20;8.30;;;9.70;99.90;;;;;;5046274;28;20217;-64
2022/11/05 02:54:54;;;;;;;8.30;7.60;;;9.80;99.90;;;;;;5043993;28;20198;-63
2022/11/05 02:57:22;;;;;;;10.63;7.70;;;10.00;99.90;;;;;;5040943;28;20642;-63
2022/11/05 02:59:48;;;;;;;9.43;8.53;;;10.50;99.90;;;;;;5032560;28;20187;-62
2022/11/05 03:02:13;;;;;;;9.83;8.83;;;10.00;99.90;;;;;;5033289;28;20203;-63
2022/11/05 03:04:39;;;;;;;10.50;8.27;;;10.10;99.90;;;;;;5045824;28;20556;-62
2022/11/05 03:07:23;;;;;;;9.13;8.23;;;10.10;99.90;;;;;;5045013;28;20187;-62
2022/11/05 03:10:13;;;;;;;8.33;7.57;;;10.10;99.90;;;;;;5037287;28;20590;-62
2022/11/05 03:13:18;;;;;;;9.27;8.37;;;10.00;99.90;;;;;;5048203;28;20217;-63
2022/11/05 03:15:43;;;;;;;7.47;6.77;;;10.00;99.90;;;;;;5011288;28;20194;-63
2022/11/05 03:18:42;;;;;;;9.60;8.00;;;10.00;99.90;;;;;;5063591;28;20613;-63
2022/11/05 03:21:26;;;;;;;8.40;7.10;;;9.70;99.90;;;;;;4947331;29;20676;-63
2022/11/05 03:24:04;;;;;;;8.77;7.87;;;9.40;99.90;;;;;;4943060;28;20193;-63
2022/11/05 03:26:36;;;;;;;9.30;8.40;;;9.30;99.90;;;;;;4970848;28;20211;-63
2022/11/05 03:29:07;;;;;;;10.00;6.73;;;9.30;99.90;;;;;;4950933;28;20719;-63
2022/11/05 03:31:35;;;;;;;8.23;7.40;;;9.60;99.90;;;;;;4949663;29;20222;-63
2022/11/05 03:34:03;;;;;;;9.53;8.53;;;9.20;99.90;;;;;;4937297;29;20187;-63
2022/11/05 03:36:39;;;;;;;8.37;7.57;;;9.10;99.90;;;;;;4934805;29;20198;-63
2022/11/05 03:39:09;;;;;;;8.23;7.43;;;9.10;99.90;;;;;;4950204;28;20221;-63
2022/11/05 03:41:41;;;;;;;7.53;6.83;;;9.20;99.90;;;;;;4966698;28;20202;-63
2022/11/05 03:44:11;;;;;;;7.73;6.73;;;9.60;99.90;;;;;;4931663;29;20681;-63
2022/11/05 03:46:43;;;;;;;7.67;6.97;;;9.40;99.90;;;;;;4933494;29;20228;-63
2022/11/05 03:49:14;;;;;;;8.70;7.90;;;10.20;99.90;;;;;;4951463;29;20585;-62
2022/11/05 03:51:45;;;;;;;7.57;6.33;;;9.70;99.90;;;;;;4950913;28;20289;-61
2022/11/05 03:54:12;;;;;;;8.00;6.70;;;9.60;99.90;;;;;;4950213;29;20576;-62
2022/11/05 03:56:51;;;;;;;8.10;7.00;;;9.90;99.90;;;;;;4953854;28;20199;-63
2022/11/05 03:59:18;;;;;;;7.40;6.70;;;9.90;99.90;;;;;;5038184;28;20179;-62
2022/11/05 04:01:44;;;;;;;9.50;8.00;;;9.70;99.90;;;;;;5048429;28;20233;-63
2022/11/05 04:04:10;;;;;;;8.80;6.87;;;9.70;99.90;;;;;;5049182;28;20589;-62
2022/11/05 04:15:08;;;;;;;8.23;7.23;;;9.40;99.90;;;;;;4983774;28;20243;-63
2022/11/05 04:17:33;;;;;;;7.30;6.53;;;9.40;99.90;;;;;;4987282;28;20201;-62
2022/11/05 04:25:27;;;;;;;8.67;7.77;;;9.30;99.90;;;;;;4977770;28;20200;-64
2022/11/05 04:27:59;;;;;;;8.20;7.40;;;9.30;99.90;;;;;;4975021;28;20185;-62
2022/11/05 04:30:24;;;;;;;7.37;6.67;;;9.30;99.90;;;;;;4987120;28;20380;-63
2022/11/05 04:33:06;;;;;;;8.60;7.73;;;9.70;99.90;;;;;;4984476;28;20248;-62
2022/11/05 04:35:37;;;;;;;9.13;8.10;;;9.90;99.90;;;;;;4989100;28;20582;-63
2022/11/05 04:38:06;;;;;;;8.37;7.57;;;9.80;99.90;;;;;;4983515;28;20165;-63
2022/11/05 04:40:32;;;;;;;10.40;8.13;;;9.80;99.90;;;;;;4986418;28;20830;-63
2022/11/05 04:42:58;;;;;;;7.70;7.00;;;9.70;99.90;;;;;;5010910;28;20218;-64
2022/11/05 04:45:25;;;;;;;9.77;8.87;;;9.90;99.90;;;;;;5042474;28;20544;-63
2022/11/05 04:47:51;;;;;;;8.87;7.60;;;9.70;99.90;;;;;;5046387;28;20175;-64
2022/11/05 04:50:17;;;;;;;8.53;7.73;;;9.70;99.90;;;;;;5031011;28;20557;-63
2022/11/05 04:52:42;;;;;;;8.40;7.47;;;9.70;99.90;;;;;;5057645;23;20226;-57
2022/11/05 04:55:08;;;;;;;10.03;7.63;;;9.80;99.90;;;;;;5065178;28;20198;-56
2022/11/05 04:57:34;;;;;;;8.17;7.10;;;9.80;99.90;;;;;;5057748;28;20265;-58
2022/11/05 05:00:00;;;;;;;8.03;7.33;;;10.20;99.90;;;;;;5069457;28;20257;-54
2022/11/05 05:02:26;;;;;;;8.43;7.30;;;10.40;99.90;;;;;;5070277;28;20243;-56
2022/11/05 05:04:52;;;;;;;8.40;7.60;;;10.10;99.90;;;;;;5073500;28;20631;-55
2022/11/05 05:07:17;;;;;;;8.80;7.67;;;10.20;99.90;;;;;;5060851;28;20179;-58
2022/11/05 05:09:43;;;;;;;7.40;6.70;;;10.20;99.90;;;;;;5050491;28;20637;-56
2022/11/05 05:12:09;;;;;;;7.50;6.80;;;10.30;99.90;;;;;;5064922;28;20241;-58
2022/11/05 05:14:34;;;;;;;8.00;7.13;;;10.30;99.90;;;;;;5051906;28;20170;-58
2022/11/05 05:17:00;;;;;;;7.93;7.23;;;10.40;99.90;;;;;;5065678;28;20180;-54
2022/11/05 05:19:25;;;;;;;7.97;7.27;;;10.40;99.90;;;;;;5070344;28;20235;-55
2022/11/05 05:21:51;;;;;;;7.70;6.90;;;10.40;99.90;;;;;;5059492;28;20187;-58
2022/11/05 05:24:19;;;;;;;8.43;7.47;;;10.20;99.90;;;;;;5080948;28;20182;-58
2022/11/05 05:26:47;;;;;;;7.90;7.10;;;10.00;99.90;;;;;;5066253;28;20186;-57
2022/11/05 05:29:14;;;;;;;8.83;7.17;;;9.80;99.90;;;;;;5067583;28;20185;-57
2022/11/05 05:31:40;;;;;;;7.93;7.13;;;9.70;99.90;;;;;;5069901;28;20304;-58
2022/11/05 05:34:07;;;;;;;8.87;8.07;;;9.60;99.90;;;;;;5073193;28;20194;-56
2022/11/05 05:36:33;;;;;;;9.77;8.80;;;9.60;99.90;;;;;;5066949;28;20186;-56
2022/11/05 05:38:58;;;;;;;8.53;7.73;;;9.60;99.90;;;;;;5054646;28;20178;-58
2022/11/05 05:41:24;;;;;;;9.43;8.53;;;9.80;99.90;;;;;;5054741;28;20186;-56
2022/11/05 05:43:49;;;;;;;9.10;8.17;;;10.30;99.90;;;;;;5057025;28;20281;-55
2022/11/05 05:46:17;;;;;;;8.70;7.80;;;10.30;99.90;;;;;;5069378;28;20608;-58
2022/11/05 05:48:47;;;;;;;9.20;8.30;;;9.70;99.90;;;;;;5066670;28;20727;-54
2022/11/05 05:51:13;;;;;;;8.23;7.47;;;9.80;99.90;;;;;;5073393;28;20289;-57
2022/11/05 05:53:39;;;;;;;9.47;8.43;;;9.70;99.90;;;;;;5068048;28;20297;-58
2022/11/05 05:56:05;;;;;;;9.00;8.10;;;9.60;99.90;;;;;;5073422;28;20175;-55
2022/11/05 05:58:35;;;;;;;8.80;8.00;;;9.50;99.90;;;;;;5067363;28;20653;-58
2022/11/05 06:01:03;;;;;;;8.87;7.97;;;9.70;99.90;;;;;;5053228;28;20663;-60
2022/11/05 06:03:29;;;;;;;9.40;8.53;;;9.80;99.90;;;;;;5068288;28;20267;-55
2022/11/05 06:06:00;;;;;;;10.30;8.10;;;10.10;99.90;;;;;;5069927;28;20182;-58
2022/11/05 06:08:25;;;;;;;8.83;7.80;;;10.00;99.90;;;;;;5072002;28;20206;-56
2022/11/05 06:10:51;;;;;;;8.67;7.80;;;9.50;99.90;;;;;;5066731;28;20664;-57
2022/11/05 06:13:16;;;;;;;8.53;7.73;;;9.60;99.90;;;;;;5072645;28;20220;-52
2022/11/05 06:15:42;;;;;;;8.97;8.07;;;9.50;99.90;;;;;;5060445;28;20179;-56
2022/11/05 06:18:07;;;;;;;9.37;8.57;;;9.10;99.90;;;;;;5068868;28;20644;-56
2022/11/05 06:20:33;;;;;;;9.20;8.30;;;9.10;99.90;;;;;;5068404;28;20655;-55
2022/11/05 06:22:58;;;;;;;9.37;8.47;;;9.10;99.90;;;;;;5069511;28;20206;-56
2022/11/05 06:25:24;;;;;;;10.07;9.07;;;10.00;99.90;;;;;;5070421;28;20186;-56
2022/11/05 06:27:50;;;;;;;8.97;8.07;;;9.30;99.90;;;;;;5071858;28;20551;-54
2022/11/05 06:30:16;;;;;;;9.00;8.10;;;9.20;99.90;;;;;;5068792;28;20179;-57
2022/11/05 06:32:42;;;;;;;10.30;8.60;;;9.00;99.90;;;;;;5062396;28;20625;-56
2022/11/05 06:35:08;;;;;;;9.13;8.23;;;9.10;99.90;;;;;;5070916;28;20570;-58
2022/11/05 06:37:34;;;;;;;9.07;8.27;;;9.10;99.90;;;;;;5062814;28;20187;-55
2022/11/05 06:40:00;;;;;;;9.13;8.23;;;9.50;99.90;;;;;;5070839;28;20175;-58
2022/11/05 06:42:25;;;;;;;8.43;7.67;;;9.20;99.90;;;;;;5067559;28;20198;-53
2022/11/05 06:44:52;;;;;;;9.30;8.30;;;9.40;99.90;;;;;;5064522;28;20240;-57
2022/11/05 06:47:18;;;;;;;8.73;7.93;;;9.30;99.90;;;;;;5069375;28;20182;-55
2022/11/05 06:49:44;;;;;;;8.73;7.93;;;8.90;99.90;;;;;;5070425;28;20191;-57
2022/11/05 06:52:11;;;;;;;9.63;8.60;;;8.60;99.90;;;;;;5053214;28;20218;-56
2022/11/05 06:54:36;;;;;;;8.57;7.67;;;8.40;99.90;;;;;;5063704;28;20255;-59
2022/11/05 06:57:03;;;;;;;8.80;8.00;;;8.40;99.90;;;;;;5068203;28;20610;-56
2022/11/05 06:59:29;;;;;;;9.00;8.20;;;8.30;99.90;;;;;;5061476;28;20183;-57
2022/11/05 07:01:55;;;;;;;8.87;8.07;;;8.20;99.90;;;;;;5052922;28;20197;-54
2022/11/05 07:04:20;;;;;;;8.87;8.07;;;8.20;99.90;;;;;;5066366;28;20193;-55
2022/11/05 07:06:46;;;;;;;10.50;9.50;;;8.30;99.90;;;;;;5058377;28;20262;-52
2022/11/05 07:09:11;;;;;;;11.27;10.17;;;8.40;99.90;;;;;;5067935;28;20179;-56
2022/11/05 07:11:37;;;;;;;9.20;8.17;;;8.70;99.90;;;;;;5063584;28;20210;-53
2022/11/05 07:14:03;;;;;;;8.80;8.00;;;8.70;99.90;;;;;;5055796;28;20190;-57
2022/11/05 07:16:28;;;;;;;9.90;8.90;;;8.80;99.90;;;;;;5053607;28;20490;-57
2022/11/05 07:18:54;;;;;;;9.07;8.27;;;8.70;99.90;;;;;;5055195;28;20178;-58
2022/11/05 07:21:21;;;;;;;8.67;7.87;;;8.80;99.90;;;;;;5051880;28;20253;-59
2022/11/05 07:23:46;;;;;;;9.47;8.57;;;9.20;99.90;;;;;;5051301;28;20195;-59
2022/11/05 07:26:12;;;;;;;8.63;7.73;;;9.20;99.90;;;;;;5051594;28;20541;-60
2022/11/05 07:28:38;;;;;;;8.53;7.80;;;9.10;99.90;;;;;;5051743;28;20292;-57
2022/11/05 07:31:03;;;;;;;8.20;7.40;;;9.20;99.90;;;;;;5051600;28;20203;-57
2022/11/05 07:33:29;;;;;;;8.47;7.67;;;9.50;99.90;;;;;;5051140;28;20271;-58
2022/11/05 07:35:56;;;;;;;9.50;7.90;;;9.70;99.90;;;;;;5051661;28;20636;-60
2022/11/05 07:38:22;;;;;;;8.57;7.77;;;9.80;99.90;;;;;;5051620;28;20163;-58
2022/11/05 07:40:48;;;;;;;8.67;7.83;;;9.40;99.90;;;;;;5051412;28;20186;-58
2022/11/05 07:43:13;;;;;;;9.17;8.27;;;8.80;99.90;;;;;;5050984;28;20241;-58
2022/11/05 07:45:39;;;;;;;8.97;8.17;;;8.70;99.90;;;;;;5066120;28;20783;-57
2022/11/05 07:48:04;;;;;;;8.73;7.93;;;8.50;99.90;;;;;;5071098;28;20266;-57
2022/11/05 07:50:33;;;;;;;8.53;7.73;;;8.20;99.90;;;;;;5070720;28;20175;-58
2022/11/05 07:53:01;;;;;;;9.03;8.13;;;7.90;99.90;;;;;;5070609;28;20591;-57
2022/11/05 07:55:26;;;;;;;9.23;8.33;;;7.90;99.90;;;;;;5070906;28;20180;-59
2022/11/05 07:57:52;;;;;;;9.00;8.20;;;7.80;99.90;;;;;;5071308;28;20174;-53
2022/11/05 08:00:20;;;;;;;9.37;8.37;;;8.10;99.90;;;;;;5068635;28;20182;-57
2022/11/05 08:03:21;;;;;;;8.50;7.70;;;8.00;99.90;;;;;;5070366;28;20225;-59
2022/11/05 08:05:47;;;;;;;11.90;8.97;;;8.00;99.90;;;;;;4969462;28;20193;-58
2022/11/05 08:08:15;;;;;;;9.40;8.40;;;7.90;99.90;;;;;;4969942;28;20628;-57
2022/11/05 08:10:41;;;;;;;11.20;8.93;;;7.90;99.90;;;;;;4965136;28;20302;-59
2022/11/05 08:13:07;;;;;;;9.80;8.90;;;7.80;99.90;;;;;;4969690;28;20308;-57
2022/11/05 08:15:33;;;;;;;9.90;8.90;;;8.50;99.90;;;;;;4969934;28;20264;-56
2022/11/05 08:18:09;;;;;;;9.33;8.37;;;8.90;99.90;;;;;;4969869;28;20182;-56
2022/11/05 08:20:35;;;;;;;9.43;8.43;;;8.60;99.90;;;;;;4969840;28;20221;-55
2022/11/05 08:23:01;;;;;;;10.63;9.30;;;8.60;99.90;;;;;;4969951;28;20189;-53
2022/11/05 08:25:27;;;;;;;9.80;8.80;;;8.70;99.90;;;;;;4969744;28;20184;-54
2022/11/05 08:28:00;;;;;;;9.57;8.63;;;7.20;99.90;;;;;;4970052;28;20182;-54
2022/11/05 08:30:27;;;;;;;9.57;8.57;;;8.80;99.90;;;;;;4969959;28;20177;-57
2022/11/05 08:32:57;;;;;;;10.00;8.80;;;9.00;99.90;;;;;;4969521;28;20313;-60
2022/11/05 08:35:23;;;;;;;9.00;8.10;;;6.50;99.90;;;;;;4969329;28;20232;-54
2022/11/05 08:37:49;;;;;;;9.77;8.47;;;9.40;99.90;;;;;;4969773;28;20182;-60
2022/11/05 08:40:14;;;;;;;10.60;8.57;;;9.30;99.90;;;;;;5036700;28;20544;-57
2022/11/05 08:42:40;;;;;;;9.90;8.90;;;9.60;99.90;;;;;;5070750;28;20327;-54
2022/11/05 08:45:06;;;;;;;9.53;8.40;;;9.00;99.90;;;;;;5070493;28;20195;-59
2022/11/05 08:47:31;;;;;;;9.57;8.13;;;8.90;99.90;;;;;;5070537;28;20182;-61
2022/11/05 08:49:57;;;;;;;10.23;9.13;;;9.00;99.90;;;;;;5070818;28;20175;-58
2022/11/05 08:52:22;;;;;;;10.07;8.00;;;8.90;99.90;;;;;;5052493;28;20348;-57
2022/11/05 08:54:48;;;;;;;9.10;8.20;;;8.80;99.90;;;;;;5070331;28;20232;-55
2022/11/05 08:57:13;;;;;;;9.00;8.20;;;8.70;99.90;;;;;;5070785;28;20174;-59
2022/11/05 08:59:39;;;;;;;10.07;9.07;;;8.70;99.90;;;;;;5070603;28;20225;-59
2022/11/05 09:02:05;;;;;;;10.20;9.20;;;8.50;99.90;;;;;;5070581;28;20175;-60
2022/11/05 09:04:30;;;;;;;10.17;9.17;;;8.70;99.90;;;;;;5074001;28;20239;-57
2022/11/05 09:06:56;;;;;;;10.33;8.50;;;8.70;99.90;;;;;;5074417;28;20173;-56
2022/11/05 09:09:22;;;;;;;9.17;8.27;;;8.80;99.90;;;;;;5074080;28;20593;-58
2022/11/05 09:11:47;;;;;;;9.53;8.63;;;8.90;99.90;;;;;;5074075;28;20229;-59
2022/11/05 09:14:13;;;;;;;10.80;9.67;;;8.90;99.90;;;;;;5073735;28;20195;-56
2022/11/05 09:16:38;;;;;;;10.67;8.63;;;9.10;99.90;;;;;;5074167;28;20219;-57
2022/11/05 09:19:04;;;;;;;11.80;10.53;;;8.90;99.90;;;;;;5074100;28;20260;-56
2022/11/05 09:21:29;;;;;;;11.57;9.50;;;9.00;99.90;;;;;;5074183;28;20204;-56
2022/11/05 09:23:55;;;;;;;11.90;9.60;;;9.00;99.90;;;;;;5065959;28;20198;-57
2022/11/05 09:26:21;;;;;;;10.37;9.40;;;8.80;99.90;;;;;;5066051;28;20252;-58
2022/11/05 09:28:46;;;;;;;9.67;8.67;;;8.70;99.90;;;;;;5073428;28;20182;-58
2022/11/05 09:31:13;;;;;;;10.17;9.17;;;8.40;99.90;;;;;;5073475;28;20535;-57
2022/11/05 09:33:40;;;;;;;10.33;8.80;;;8.50;99.90;;;;;;5070222;28;20198;-58
2022/11/05 09:36:07;;;;;;;10.03;9.03;;;8.70;99.90;;;;;;5073816;28;20293;-58
2022/11/05 09:38:36;;;;;;;9.43;8.53;;;8.70;99.90;;;;;;5073793;28;20382;-60
2022/11/05 09:41:06;;;;;;;9.47;8.57;;;8.90;99.90;;;;;;5066759;28;20681;-59
2022/11/05 09:43:37;;;;;;;9.27;8.30;;;8.80;99.90;;;;;;5073046;28;20277;-58
2022/11/05 09:46:18;;;;;;;10.30;9.30;;;8.80;99.90;;;;;;5073791;28;20169;-58
2022/11/05 09:48:47;;;;;;;10.17;9.10;;;8.80;99.90;;;;;;5073740;28;20220;-61
2022/11/05 09:51:15;;;;;;;9.83;8.83;;;8.90;99.90;;;;;;5073514;28;20213;-60
2022/11/05 09:53:42;;;;;;;9.93;9.03;;;9.00;99.90;;;;;;5072986;28;20671;-61
2022/11/05 09:56:29;;;;;;;10.80;9.43;;;9.00;99.90;;;;;;5073447;28;20532;-60
2022/11/05 09:59:21;;;;;;;10.33;9.33;;;9.00;99.90;;;;;;5073148;28;20174;-61
2022/11/05 10:01:47;;;;;;;10.37;9.37;;;9.10;99.90;;;;;;5073270;28;20308;-61
2022/11/05 10:04:21;;;;;;;11.70;9.97;;;8.90;99.90;;;;;;5072917;28;20187;-59
2022/11/05 10:06:58;;;;;;;9.67;8.67;;;9.00;99.90;;;;;;5073305;28;20531;-59
2022/11/05 10:09:39;;;;;;;10.70;9.67;;;9.20;99.90;;;;;;5073334;28;20174;-61
2022/11/05 10:12:12;;;;;;;10.03;8.87;;;9.00;99.90;;;;;;5073294;28;20606;-61
2022/11/05 10:14:59;;;;;;;9.77;8.73;;;9.20;99.90;;;;;;5071760;28;20171;-59
2022/11/05 10:17:27;;;;;;;11.60;10.50;;;9.10;99.90;;;;;;5073214;28;20174;-60
2022/11/05 10:20:23;;;;;;;10.43;9.43;;;9.10;99.90;;;;;;5073085;28;20231;-60
2022/11/05 10:22:55;;;;;;;10.53;9.13;;;9.00;99.90;;;;;;5066496;28;20214;-61
2022/11/05 10:25:23;;;;;;;9.10;8.20;;;9.00;99.90;;;;;;5072726;28;20198;-55
2022/11/05 10:27:54;;;;;;;10.43;9.40;;;8.80;99.90;;;;;;5070077;28;20703;-56
2022/11/05 10:30:20;;;;;;;10.83;9.73;;;8.90;99.90;;;;;;5061201;28;20214;-55
2022/11/05 10:32:48;;;;;;;9.83;8.87;;;9.10;99.90;;;;;;5064975;28;20218;-59
2022/11/05 10:35:21;;;;;;;10.83;9.73;;;9.10;99.90;;;;;;5056461;28;20521;-58
2022/11/05 10:37:48;;;;;;;10.27;9.33;;;9.30;99.90;;;;;;5060793;28;20219;-58
2022/11/05 10:40:42;;;;;;;10.70;9.70;;;9.90;99.90;;;;;;5055032;28;20258;-54
2022/11/05 10:43:35;;;;;;;11.10;10.00;;;9.30;99.90;;;;;;5059959;28;20201;-55
2022/11/05 10:46:19;;;;;;;12.27;10.87;;;8.90;99.90;;;;;;5072042;28;20225;-57
2022/11/05 10:48:58;;;;;;;11.63;10.43;;;8.70;99.90;;;;;;5067581;28;20187;-54
2022/11/05 10:51:24;;;;;;;12.77;11.57;;;8.80;99.90;;;;;;5061044;28;20202;-57
2022/11/05 10:53:54;;;;;;;12.37;10.80;;;8.80;99.90;;;;;;5113417;22;20233;-54
2022/11/05 10:56:38;;;;;;;13.07;11.67;;;8.90;99.90;;;;;;5086990;28;20162;-52
2022/11/05 10:59:17;;;;;;;13.33;12.03;;;8.90;99.90;;;;;;5084377;28;20218;-49
2022/11/05 11:01:43;;;;;;;12.93;11.63;;;8.90;99.90;;;;;;5092969;28;20180;-49
2022/11/05 11:04:19;;;;;;;13.70;12.40;;;9.00;99.90;;;;;;5104214;28;20198;-47
2022/11/05 11:06:53;;;;;;;11.77;10.57;;;9.30;99.90;;;;;;5104193;28;20665;-49
2022/11/05 11:09:31;;;;;;;14.43;13.03;;;8.90;99.90;;;;;;5091195;28;20181;-50
2022/11/05 11:12:06;;;;;;;13.00;11.80;;;9.00;99.90;;;;;;5091521;28;20266;-48
2022/11/05 11:14:33;;;;;;;13.80;12.27;;;9.20;99.90;;;;;;5094000;28;20192;-48
2022/11/05 11:17:36;;;;;;;12.93;11.63;;;9.40;99.90;;;;;;5109455;28;20173;-51
2022/11/05 11:20:19;;;;;;;13.07;11.57;;;9.50;99.90;;;;;;5106868;28;20264;-50
2022/11/05 11:23:03;;;;;;;12.20;11.00;;;9.50;99.90;;;;;;5099866;28;20624;-51
2022/11/05 11:25:51;;;;;;;12.00;10.80;;;9.30;99.90;;;;;;5110911;28;20180;-48
2022/11/05 11:28:46;;;;;;;12.53;11.07;;;9.20;99.90;;;;;;5091462;28;20184;-49
2022/11/05 11:31:22;;;;;;;12.37;11.17;;;9.20;99.90;;;;;;5087688;28;20242;-49
2022/11/05 11:33:57;;;;;;;12.80;11.40;;;9.20;99.90;;;;;;5092786;28;20860;-55
2022/11/05 11:36:51;;;;;;;12.20;11.00;;;9.10;99.90;;;;;;5091344;28;20160;-49
2022/11/05 11:39:22;;;;;;;11.37;10.27;;;9.10;99.90;;;;;;5087258;28;20197;-53
2022/11/05 11:42:04;;;;;;;15.13;10.80;;;9.30;99.90;;;;;;5091492;28;20249;-54
2022/11/05 11:44:34;;;;;;;11.30;10.10;;;9.40;99.90;;;;;;5099869;28;20585;-57
2022/11/05 11:47:03;;;;;;;11.90;10.67;;;9.50;99.90;;;;;;5091365;28;20166;-53
2022/11/05 11:49:48;;;;;;;11.43;10.00;;;9.90;99.90;;;;;;5092084;28;20256;-48
2022/11/05 11:52:15;;;;;;;11.33;10.30;;;9.30;99.90;;;;;;5073913;28;20216;-56
2022/11/05 11:54:41;;;;;;;11.33;10.10;;;9.40;99.90;;;;;;5102147;28;20209;-49
2022/11/05 11:57:30;;;;;;;10.17;9.27;;;10.40;99.90;;;;;;5091204;28;20170;-53
2022/11/05 11:59:58;;;;;;;10.13;9.13;;;9.90;99.90;;;;;;5078000;28;20253;-52
2022/11/05 12:02:32;;;;;;;11.37;10.23;;;9.90;99.90;;;;;;5084911;28;20174;-55
2022/11/05 12:05:19;;;;;;;11.33;10.13;;;9.90;99.90;;;;;;5091069;28;20703;-50
2022/11/05 12:07:51;;;;;;;9.73;8.73;;;9.60;99.90;;;;;;5086650;28;20188;-54
2022/11/05 12:10:47;;;;;;;10.87;9.87;;;9.60;99.90;;;;;;5084900;28;20272;-55
2022/11/05 12:13:19;;;;;;;10.77;9.30;;;9.50;99.90;;;;;;5072054;28;20280;-53
2022/11/05 12:15:58;;;;;;;11.13;9.63;;;9.60;99.90;;;;;;5072315;28;20224;-54
2022/11/05 12:18:45;;;;;;;9.97;8.90;;;9.50;99.90;;;;;;5081535;28;20166;-53
2022/11/05 12:21:29;;;;;;;9.93;8.90;;;9.50;99.90;;;;;;5074427;28;20280;-57
2022/11/05 12:24:15;;;;;;;11.50;9.10;;;9.50;99.90;;;;;;5070302;28;20335;-52
2022/11/05 12:27:05;;;;;;;9.93;8.93;;;9.60;99.90;;;;;;5070978;28;20501;-48
2022/11/05 12:29:44;;;;;;;11.70;10.50;;;9.50;99.90;;;;;;5070681;28;20163;-58
2022/11/05 12:32:39;;;;;;;10.80;9.70;;;10.00;99.90;;;;;;5070447;28;20158;-50
2022/11/05 12:35:29;;;;;;;11.33;10.13;;;10.30;99.90;;;;;;5070194;28;20218;-52
2022/11/05 12:38:18;;;;;;;10.97;9.17;;;10.50;99.90;;;;;;5072423;28;20260;-52
2022/11/05 12:41:05;;;;;;;9.77;8.77;;;10.20;99.90;;;;;;5074537;28;20193;-50
2022/11/05 12:43:45;;;;;;;10.17;9.07;;;9.90;99.90;;;;;;5074280;28;20261;-50
2022/11/05 12:46:19;;;;;;;10.60;9.47;;;9.90;99.90;;;;;;5074295;28;20227;-58
2022/11/05 12:48:45;;;;;;;13.50;9.30;;;10.00;99.90;;;;;;5074731;28;20296;-58
2022/11/05 12:51:35;;;;;;;11.17;9.30;;;10.10;99.90;;;;;;5074579;28;20336;-51
2022/11/05 12:54:31;;;;;;;11.60;9.20;;;10.20;99.90;;;;;;5073995;28;20210;-54
2022/11/05 12:57:02;;;;;;;9.93;8.93;;;10.20;99.90;;;;;;5074448;28;20224;-53
2022/11/05 12:59:40;;;;;;;9.83;8.83;;;10.30;99.90;;;;;;5074418;28;20265;-55
2022/11/05 13:02:22;;;;;;;10.33;8.20;;;10.50;99.90;;;;;;5074361;28;20198;-58
2022/11/05 13:05:09;;;;;;;7.63;6.93;;;10.70;99.90;;;;;;5073988;28;20197;-56
2022/11/05 13:07:42;;;;;;;7.20;6.50;;;11.10;99.90;;;;;;5074303;28;20166;-55
2022/11/05 13:10:30;;;;;;;7.60;6.80;;;11.40;99.90;;;;;;5074623;28;20254;-52
2022/11/05 13:13:08;;;;;;;6.97;6.27;;;11.80;99.90;;;;;;5093773;28;20169;-56
2022/11/05 13:15:41;;;;;;;7.13;6.43;;;12.30;99.90;;;;;;5115075;28;20503;-55
2022/11/05 13:18:15;;;;;;;6.10;5.50;;;12.70;99.90;;;;;;5114877;28;20178;-51
2022/11/05 13:20:46;;;;;;;6.50;5.40;;;13.10;99.90;;;;;;5114970;28;20184;-53
2022/11/05 13:23:33;;;;;;;6.20;5.40;;;12.90;99.90;;;;;;5114235;28;20186;-55
2022/11/05 13:26:12;;;;;;;6.43;5.43;;;12.90;99.90;;;;;;5114731;28;20181;-56
2022/11/05 13:28:47;;;;;;;6.47;5.87;;;12.70;99.90;;;;;;5114659;28;20157;-55
2022/11/05 13:31:19;;;;;;;6.37;5.77;;;12.80;99.90;;;;;;5114780;28;20510;-54
2022/11/05 13:33:49;;;;;;;6.63;5.73;;;12.70;99.90;;;;;;5113899;28;20188;-51
2022/11/05 13:39:40;;;;;;;6.40;5.80;;;12.80;99.90;;;;;;5114727;28;20171;-57
2022/11/05 13:42:05;;;;;;;5.67;5.17;;;12.70;99.90;;;;;;5114281;28;20193;-56
2022/11/05 13:44:54;;;;;;;7.13;6.10;;;12.60;99.90;;;;;;5113831;28;20195;-56
2022/11/05 13:47:57;;;;;;;6.70;5.33;;;12.70;99.90;;;;;;5114320;28;20173;-51
2022/11/05 13:51:00;;;;;;;5.63;5.03;;;12.50;99.90;;;;;;5114047;28;20538;-56
2022/11/05 13:54:06;;;;;;;6.03;5.43;;;12.00;99.90;;;;;;5113773;28;20730;-55
2022/11/05 13:56:43;;;;;;;9.67;5.53;;;12.20;99.90;;;;;;5011186;28;20650;-57